createdAt,value
2018-09-12T00:01:38.383Z,100706.44
2018-09-12T00:04:08.184Z,100705.58
2018-09-12T00:06:37.908Z,100705.05
2018-09-12T00:09:10.898Z,100700.50
2018-09-12T00:11:44.626Z,100698.84
2018-09-12T00:14:14.324Z,100699.61
2018-09-12T00:16:44.066Z,100692.22
2018-09-12T00:19:13.724Z,100687.36
2018-09-12T00:21:43.435Z,100685.66
2018-09-12T00:24:13.125Z,100681.16
2018-09-12T00:26:42.831Z,100677.84
2018-09-12T00:29:13.194Z,100675.34
2018-09-12T00:31:43.002Z,100679.65
2018-09-12T00:34:12.730Z,100674.21
2018-09-12T00:36:42.424Z,100676.67
2018-09-12T00:39:12.991Z,100677.48
2018-09-12T00:41:43.160Z,100669.70
2018-09-12T00:44:13.139Z,100672.90
2018-09-12T00:46:42.916Z,100668.36
2018-09-12T00:49:12.585Z,100672.09
2018-09-12T00:51:42.306Z,100668.09
2018-09-12T00:54:12.316Z,100659.45
2018-09-12T00:56:42.013Z,100658.92
2018-09-12T00:59:11.636Z,100664.77
2018-09-12T01:01:41.409Z,100662.12
2018-09-12T01:04:11.072Z,100664.55
2018-09-12T01:06:40.759Z,100656.72
2018-09-12T01:09:10.487Z,100656.49
2018-09-12T01:11:40.279Z,100655.95
2018-09-12T01:14:09.982Z,100659.11
2018-09-12T01:16:39.714Z,100656.14
2018-09-12T01:19:09.441Z,100660.45
2018-09-12T01:21:39.157Z,100657.00
2018-09-12T01:24:08.823Z,100653.98
2018-09-12T01:26:38.760Z,100653.17
2018-09-12T01:29:08.553Z,100658.34
2018-09-12T01:31:38.334Z,100658.38
2018-09-12T01:34:08.179Z,100653.80
2018-09-12T01:36:38.258Z,100656.49
2018-09-12T01:39:09.596Z,100652.29
2018-09-12T01:41:39.562Z,100652.75
2018-09-12T01:44:09.685Z,100649.28
2018-09-12T01:46:39.704Z,100649.02
2018-09-12T01:49:12.087Z,100646.59
2018-09-12T01:51:42.300Z,100646.32
2018-09-12T01:54:12.057Z,100637.41
2018-09-12T01:56:42.002Z,100646.86
2018-09-12T01:59:12.031Z,100643.66
2018-09-12T02:01:42.324Z,100640.08
2018-09-12T02:04:11.951Z,100632.80
2018-09-12T02:06:41.797Z,100626.59
2018-09-12T02:09:13.597Z,100625.51
2018-09-12T02:11:43.373Z,100627.40
2018-09-12T02:14:13.082Z,100628.28
2018-09-12T02:16:42.898Z,100621.77
2018-09-12T02:19:12.612Z,100624.47
2018-09-12T02:21:42.377Z,100623.89
2018-09-12T02:24:12.120Z,100617.38
2018-09-12T02:26:41.936Z,100617.66
2018-09-12T02:29:12.125Z,100623.55
2018-09-12T02:31:41.987Z,100624.39
2018-09-12T02:34:11.817Z,100624.05
2018-09-12T02:36:41.699Z,100618.89
2018-09-12T02:39:16.848Z,100619.16
2018-09-12T02:41:46.968Z,100616.69
2018-09-12T02:44:17.102Z,100619.16
2018-09-12T02:46:47.285Z,100619.66
2018-09-12T02:49:17.518Z,100622.88
2018-09-12T02:51:47.833Z,100616.37
2018-09-12T02:54:18.084Z,100622.80
2018-09-12T02:56:47.886Z,100623.07
2018-09-12T02:59:17.780Z,100623.87
2018-09-12T03:01:47.470Z,100623.03
2018-09-12T03:04:17.179Z,100621.64
2018-09-12T03:06:46.995Z,100614.41
2018-09-12T03:09:17.123Z,100611.52
2018-09-12T03:11:47.167Z,100618.72
2018-09-12T03:14:17.100Z,100622.00
2018-09-12T03:16:51.362Z,100615.26
2018-09-12T03:19:21.108Z,100616.91
2018-09-12T03:21:51.136Z,100604.78
2018-09-12T03:24:21.260Z,100609.41
2018-09-12T03:26:51.628Z,100600.47
2018-09-12T03:29:21.553Z,100601.83
2018-09-12T03:31:51.731Z,100593.16
2018-09-12T03:34:22.146Z,100595.04
2018-09-12T03:36:51.895Z,100593.96
2018-09-12T03:39:21.610Z,100592.89
2018-09-12T03:41:51.380Z,100589.11
2018-09-12T03:44:21.009Z,100582.64
2018-09-12T03:46:50.805Z,100580.48
2018-09-12T03:49:20.400Z,100585.56
2018-09-12T03:51:54.413Z,100579.91
2018-09-12T03:54:24.029Z,100579.41
2018-09-12T03:56:53.685Z,100575.63
2018-09-12T03:59:23.338Z,100573.74
2018-09-12T04:01:53.284Z,100571.58
2018-09-12T04:04:22.964Z,100568.58
2018-09-12T04:06:53.607Z,100573.39
2018-09-12T04:09:23.407Z,100575.00
2018-09-12T04:11:53.031Z,100582.30
2018-09-12T04:14:22.675Z,100575.00
2018-09-12T04:16:53.079Z,100576.50
2018-09-12T04:19:22.755Z,100574.30
2018-09-12T04:21:52.507Z,100577.44
2018-09-12T04:24:22.260Z,100573.98
2018-09-12T04:26:52.181Z,100574.20
2018-09-12T04:29:21.813Z,100581.66
2018-09-12T04:31:51.742Z,100583.32
2018-09-12T04:34:21.456Z,100583.46
2018-09-12T04:36:51.654Z,100591.00
2018-09-12T04:39:21.461Z,100582.31
2018-09-12T04:41:51.108Z,100585.83
2018-09-12T04:44:21.528Z,100580.92
2018-09-12T04:46:51.237Z,100585.19
2018-09-12T04:49:20.908Z,100591.38
2018-09-12T04:51:50.677Z,100587.05
2018-09-12T04:54:20.326Z,100598.05
2018-09-12T04:56:50.074Z,100597.23
2018-09-12T04:59:19.796Z,100597.73
2018-09-12T05:01:49.478Z,100601.29
2018-09-12T05:04:19.208Z,100604.78
2018-09-12T05:06:48.919Z,100610.16
2018-09-12T05:09:18.652Z,100609.70
2018-09-12T05:11:48.286Z,100611.78
2018-09-12T05:14:18.520Z,100608.30
2018-09-12T05:16:48.277Z,100610.17
2018-09-12T05:19:19.591Z,100616.37
2018-09-12T05:21:49.494Z,100620.59
2018-09-12T05:24:19.282Z,100618.52
2018-09-12T05:26:48.985Z,100612.58
2018-09-12T05:29:18.743Z,100614.59
2018-09-12T05:31:48.835Z,100618.73
2018-09-12T05:34:18.625Z,100623.25
2018-09-12T05:36:48.343Z,100618.69
2018-09-12T05:39:17.959Z,100614.74
2018-09-12T05:41:47.596Z,100619.06
2018-09-12T05:44:17.299Z,100617.80
2018-09-12T05:46:46.969Z,100626.61
2018-09-12T05:49:16.651Z,100628.11
2018-09-12T05:51:46.286Z,100622.45
2018-09-12T05:54:16.032Z,100617.00
2018-09-12T05:56:45.684Z,100621.35
2018-09-12T05:59:15.512Z,100626.13
2018-09-12T06:01:45.382Z,100622.44
2018-09-12T06:04:15.115Z,100616.47
2018-09-12T06:06:44.893Z,100638.02
2018-09-12T06:09:14.476Z,100626.55
2018-09-12T06:11:44.085Z,100625.45
2018-09-12T06:14:13.861Z,100622.95
2018-09-12T06:16:43.428Z,100626.39
2018-09-12T06:19:13.061Z,100628.70
2018-09-12T06:21:42.683Z,100624.87
2018-09-12T06:24:12.342Z,100626.55
2018-09-12T06:26:41.960Z,100633.77
2018-09-12T06:29:11.586Z,100628.38
2018-09-12T06:31:41.335Z,100625.05
2018-09-12T06:34:11.044Z,100631.91
2018-09-12T06:36:40.925Z,100627.94
2018-09-12T06:39:12.448Z,100635.90
2018-09-12T06:41:42.259Z,100635.72
2018-09-12T06:44:12.345Z,100637.64
2018-09-12T06:46:42.904Z,100638.87
2018-09-12T06:49:17.212Z,100647.02
2018-09-12T06:51:46.971Z,100643.87
2018-09-12T06:54:16.784Z,100651.22
2018-09-12T06:56:46.670Z,100655.39
2018-09-12T06:59:16.477Z,100649.37
2018-09-12T07:01:47.787Z,100645.33
2018-09-12T07:04:22.180Z,100651.01
2018-09-12T07:06:51.980Z,100650.03
2018-09-12T07:09:21.884Z,100651.98
2018-09-12T07:11:51.638Z,100648.27
2018-09-12T07:16:50.803Z,100639.67
2018-09-12T07:19:20.767Z,100637.14
2018-09-12T07:21:50.668Z,100638.02
2018-09-12T07:24:20.687Z,100640.34
2018-09-12T07:26:50.386Z,100640.84
2018-09-12T07:29:20.905Z,100644.47
2018-09-12T07:31:50.586Z,100645.90
2018-09-12T07:34:20.394Z,100645.88
2018-09-12T07:36:50.063Z,100646.73
2018-09-12T07:39:19.804Z,100641.09
2018-09-12T07:41:49.595Z,100642.48
2018-09-12T07:44:19.243Z,100646.16
2018-09-12T07:46:52.975Z,100652.71
2018-09-12T07:49:22.846Z,100657.84
2018-09-12T07:51:52.646Z,100664.41
2018-09-12T07:54:22.428Z,100652.09
2018-09-12T07:56:52.366Z,100650.01
2018-09-12T07:59:22.464Z,100654.11
2018-09-12T08:01:52.179Z,100651.55
2018-09-12T08:04:21.933Z,100647.59
2018-09-12T08:06:51.613Z,100644.27
2018-09-12T08:09:21.448Z,100654.13
2018-09-12T08:11:51.283Z,100645.44
2018-09-12T08:14:20.993Z,100650.56
2018-09-12T08:16:50.758Z,100651.65
2018-09-12T08:19:20.466Z,100653.83
2018-09-12T08:21:50.374Z,100653.28
2018-09-12T08:24:20.488Z,100651.92
2018-09-12T08:26:50.650Z,100649.77
2018-09-12T08:29:20.533Z,100649.42
2018-09-12T08:31:50.548Z,100645.38
2018-09-12T08:34:20.368Z,100645.92
2018-09-12T08:36:50.449Z,100643.61
2018-09-12T08:39:20.398Z,100656.74
2018-09-12T08:41:51.011Z,100653.83
2018-09-12T08:44:21.101Z,100661.42
2018-09-12T08:46:51.389Z,100652.74
2018-09-12T08:49:21.592Z,100661.42
2018-09-12T08:51:51.660Z,100657.86
2018-09-12T08:54:21.523Z,100662.20
2018-09-12T08:56:51.991Z,100657.27
2018-09-12T08:59:21.793Z,100662.48
2018-09-12T09:01:51.867Z,100653.78
2018-09-12T09:04:22.009Z,100652.94
2018-09-12T09:06:51.764Z,100650.75
2018-09-12T09:09:21.831Z,100658.78
2018-09-12T09:11:51.778Z,100647.38
2018-09-12T09:14:22.128Z,100654.81
2018-09-12T09:16:53.038Z,100657.78
2018-09-12T09:19:22.732Z,100663.66
2018-09-12T09:21:52.787Z,100657.21
2018-09-12T09:24:23.189Z,100659.41
2018-09-12T09:26:53.410Z,100664.66
2018-09-12T09:29:23.360Z,100657.14
2018-09-12T09:31:53.612Z,100656.12
2018-09-12T09:34:24.071Z,100659.37
2018-09-12T09:36:55.729Z,100655.34
2018-09-12T09:39:28.448Z,100646.36
2018-09-12T09:41:58.713Z,100642.06
2018-09-12T09:44:31.148Z,100650.53
2018-09-12T09:47:02.594Z,100654.09
2018-09-12T09:49:33.131Z,100657.28
2018-09-12T09:52:03.853Z,100657.20
2018-09-12T09:54:33.722Z,100657.16
2018-09-12T09:57:03.629Z,100660.98
2018-09-12T09:59:33.937Z,100664.48
2018-09-12T10:02:10.858Z,100664.20
2018-09-12T10:04:49.872Z,100669.84
2018-09-12T10:07:31.224Z,100661.45
2018-09-12T10:10:08.359Z,100663.03
2018-09-12T10:15:22.314Z,100674.85
2018-09-12T10:17:56.273Z,100677.80
2018-09-12T10:20:26.018Z,100674.87
2018-09-12T10:23:09.977Z,100679.19
2018-09-12T10:25:42.145Z,100681.09
2018-09-12T10:28:13.533Z,100687.34
2018-09-12T10:30:44.872Z,100697.13
2018-09-12T10:33:16.097Z,100700.39
2018-09-12T10:35:46.273Z,100697.91
2018-09-12T10:38:21.343Z,100688.73
2018-09-12T10:40:56.944Z,100692.26
2018-09-12T10:43:28.391Z,100684.66
2018-09-12T10:45:59.313Z,100686.77
2018-09-12T10:48:30.523Z,100689.09
2018-09-12T10:51:04.883Z,100684.30
2018-09-12T10:53:39.454Z,100678.73
2018-09-12T10:56:15.726Z,100684.37
2018-09-12T10:58:47.585Z,100678.03
2018-09-12T11:01:19.041Z,100684.78
2018-09-12T11:03:55.919Z,100684.30
2018-09-12T11:06:26.340Z,100691.16
2018-09-12T11:11:29.923Z,100691.71
2018-09-12T11:14:01.097Z,100691.87
2018-09-12T11:16:35.674Z,100693.80
2018-09-12T11:19:07.900Z,100689.33
2018-09-12T11:21:42.964Z,100696.30
2018-09-12T11:24:13.607Z,100706.94
2018-09-12T11:26:43.926Z,100720.34
2018-09-12T11:29:14.095Z,100723.46
2018-09-12T11:31:46.938Z,100732.03
2018-09-12T11:34:16.943Z,100751.39
2018-09-12T11:39:38.108Z,100751.88
2018-09-12T11:42:12.124Z,100759.02
2018-09-12T11:44:45.221Z,100760.90
2018-09-12T11:49:44.032Z,100767.91
2018-09-12T11:52:14.762Z,100779.50
2018-09-12T11:54:49.510Z,100775.97
2018-09-12T11:57:19.608Z,100773.94
2018-09-12T11:59:49.654Z,100781.99
2018-09-12T12:02:21.036Z,100780.61
2018-09-12T12:04:55.188Z,100786.25
2018-09-12T12:07:25.342Z,100778.56
2018-09-12T12:09:59.975Z,100788.73
2018-09-12T12:15:25.645Z,100792.69
2018-09-12T12:18:01.818Z,100795.38
2018-09-12T12:20:34.662Z,100802.34
2018-09-12T12:25:33.021Z,100804.77
2018-09-12T12:28:03.168Z,100803.89
2018-09-12T12:30:33.602Z,100810.21
2018-09-12T12:33:03.937Z,100812.92
2018-09-12T12:35:34.745Z,100806.66
2018-09-12T12:38:04.625Z,100806.91
2018-09-12T12:40:34.392Z,100802.48
2018-09-12T12:43:04.306Z,100816.66
2018-09-12T12:45:34.500Z,100812.31
2018-09-12T12:48:04.349Z,100813.95
2018-09-12T12:50:34.607Z,100823.56
2018-09-12T12:53:08.874Z,100829.73
2018-09-12T12:55:38.652Z,100822.53
2018-09-12T12:58:08.495Z,100830.28
2018-09-12T13:00:38.397Z,100831.30
2018-09-12T13:03:08.153Z,100833.57
2018-09-12T13:05:42.383Z,100844.34
2018-09-12T13:08:12.197Z,100839.17
2018-09-12T13:10:41.900Z,100835.42
2018-09-12T13:13:11.600Z,100846.21
2018-09-12T13:15:41.386Z,100838.17
2018-09-12T13:18:11.121Z,100840.34
2018-09-12T13:20:40.900Z,100847.52
2018-09-12T13:23:12.093Z,100853.61
2018-09-12T13:25:41.980Z,100856.63
2018-09-12T13:28:11.785Z,100866.94
2018-09-12T13:30:41.813Z,100863.61
2018-09-12T13:33:11.661Z,100862.21
2018-09-12T13:35:42.158Z,100872.27
2018-09-12T13:38:11.949Z,100881.29
2018-09-12T13:40:41.693Z,100879.79
2018-09-12T13:43:11.666Z,100882.52
2018-09-12T13:45:41.813Z,100880.89
2018-09-12T13:48:12.031Z,100871.52
2018-09-12T13:50:42.106Z,100883.20
2018-09-12T13:53:12.172Z,100881.34
2018-09-12T13:55:42.048Z,100883.75
2018-09-12T13:58:12.105Z,100881.34
2018-09-12T14:00:42.300Z,100890.17
2018-09-12T14:03:12.121Z,100887.66
2018-09-12T14:05:41.849Z,100893.09
2018-09-12T14:08:11.669Z,100894.60
2018-09-12T14:10:41.667Z,100888.83
2018-09-12T14:13:12.727Z,100886.95
2018-09-12T14:15:42.613Z,100888.30
2018-09-12T14:18:13.658Z,100882.00
2018-09-12T14:20:43.584Z,100886.10
2018-09-12T14:23:13.387Z,100888.36
2018-09-12T14:25:43.204Z,100883.13
2018-09-12T14:28:13.007Z,100885.86
2018-09-12T14:30:42.815Z,100903.43
2018-09-12T14:33:12.679Z,100909.95
2018-09-12T14:35:42.826Z,100897.14
2018-09-12T14:38:12.863Z,100890.69
2018-09-12T14:40:43.206Z,100891.47
2018-09-12T14:43:13.173Z,100893.07
2018-09-12T14:45:43.550Z,100886.36
2018-09-12T14:48:13.525Z,100883.34
2018-09-12T14:50:43.806Z,100891.44
2018-09-12T14:53:18.677Z,100893.88
2018-09-12T14:55:48.636Z,100902.08
2018-09-12T14:58:18.365Z,100900.91
2018-09-12T15:00:48.358Z,100899.93
2018-09-12T15:03:18.261Z,100898.68
2018-09-12T15:05:52.610Z,100897.67
2018-09-12T15:08:22.741Z,100910.40
2018-09-12T15:10:52.520Z,100906.62
2018-09-12T15:13:22.358Z,100918.28
2018-09-12T15:15:52.192Z,100908.48
2018-09-12T15:18:21.983Z,100915.00
2018-09-12T15:20:58.511Z,100918.26
2018-09-12T15:23:28.397Z,100919.83
2018-09-12T15:25:58.100Z,100921.08
2018-09-12T15:28:27.966Z,100926.01
2018-09-12T15:30:57.693Z,100923.52
2018-09-12T15:33:27.420Z,100933.02
2018-09-12T15:35:57.350Z,100933.23
2018-09-12T15:38:27.041Z,100938.95
2018-09-12T15:40:57.415Z,100937.08
2018-09-12T15:43:27.144Z,100938.32
2018-09-12T15:45:56.909Z,100931.05
2018-09-12T15:48:26.711Z,100933.52
2018-09-12T15:50:56.478Z,100930.84
2018-09-12T15:53:26.235Z,100933.23
2018-09-12T15:55:55.951Z,100935.61
2018-09-12T15:58:25.907Z,100937.98
2018-09-12T16:00:56.060Z,100934.94
2018-09-12T16:03:25.929Z,100932.02
2018-09-12T16:05:55.796Z,100924.48
2018-09-12T16:08:25.581Z,100923.38
2018-09-12T16:10:55.321Z,100930.02
2018-09-12T16:13:27.937Z,100928.30
2018-09-12T16:15:57.731Z,100930.25
2018-09-12T16:18:27.517Z,100932.85
2018-09-12T16:20:57.269Z,100928.39
2018-09-12T16:23:27.060Z,100935.33
2018-09-12T16:25:56.847Z,100936.14
2018-09-12T16:28:26.739Z,100937.05
2018-09-12T16:30:56.528Z,100930.55
2018-09-12T16:33:26.295Z,100926.91
2018-09-12T16:35:56.025Z,100932.78
2018-09-12T16:38:25.676Z,100934.63
2018-09-12T16:40:55.437Z,100943.28
2018-09-12T16:43:25.236Z,100956.83
2018-09-12T16:45:55.026Z,100946.84
2018-09-12T16:48:26.195Z,100942.37
2018-09-12T16:50:55.937Z,100942.33
2018-09-12T16:53:25.749Z,100948.35
2018-09-12T16:55:55.516Z,100948.13
2018-09-12T16:58:25.379Z,100946.11
2018-09-12T17:00:55.316Z,100955.72
2018-09-12T17:03:25.069Z,100952.58
2018-09-12T17:05:55.248Z,100947.53
2018-09-12T17:08:25.151Z,100946.48
2018-09-12T17:10:55.211Z,100959.51
2018-09-12T17:13:24.973Z,100953.91
2018-09-12T17:15:55.052Z,100958.30
2018-09-12T17:18:24.783Z,100964.20
2018-09-12T17:20:54.702Z,100961.38
2018-09-12T17:23:24.483Z,100957.12
2018-09-12T17:25:54.673Z,100959.59
2018-09-12T17:28:24.405Z,100963.44
2018-09-12T17:30:54.531Z,100956.61
2018-09-12T17:33:24.441Z,100959.45
2018-09-12T17:35:54.431Z,100955.78
2018-09-12T17:38:24.173Z,100959.88
2018-09-12T17:41:00.581Z,100961.23
2018-09-12T17:43:30.283Z,100968.30
2018-09-12T17:45:59.994Z,100967.26
2018-09-12T17:48:29.845Z,100970.44
2018-09-12T17:50:59.508Z,100970.45
2018-09-12T17:53:29.450Z,100973.94
2018-09-12T17:55:59.147Z,100980.05
2018-09-12T17:58:29.218Z,100987.61
2018-09-12T18:00:59.252Z,100979.87
2018-09-12T18:03:29.014Z,100984.05
2018-09-12T18:05:59.151Z,100986.34
2018-09-12T18:08:28.813Z,100986.87
2018-09-12T18:11:02.046Z,100987.78
2018-09-12T18:13:31.744Z,100989.02
2018-09-12T18:16:01.520Z,100992.16
2018-09-12T18:18:31.752Z,100997.90
2018-09-12T18:21:01.492Z,101000.86
2018-09-12T18:23:31.207Z,100993.48
2018-09-12T18:26:01.057Z,100994.66
2018-09-12T18:28:30.870Z,100992.33
2018-09-12T18:31:01.009Z,100997.76
2018-09-12T18:33:30.845Z,101001.31
2018-09-12T18:36:01.081Z,101007.13
2018-09-12T18:38:31.061Z,101006.77
2018-09-12T18:41:01.040Z,101008.92
2018-09-12T18:43:31.044Z,101002.88
2018-09-12T18:46:01.085Z,101014.22
2018-09-12T18:48:31.094Z,101006.54
2018-09-12T18:51:07.707Z,101014.38
2018-09-12T18:53:38.473Z,101013.04
2018-09-12T18:56:08.776Z,101000.86
2018-09-12T18:58:39.047Z,101001.87
2018-09-12T19:01:08.849Z,101000.83
2018-09-12T19:03:39.043Z,100994.59
2018-09-12T19:06:09.753Z,100999.78
2018-09-12T19:08:39.651Z,100994.49
2018-09-12T19:11:10.562Z,100988.75
2018-09-12T19:13:41.320Z,100994.69
2018-09-12T19:16:11.308Z,100998.19
2018-09-12T19:18:41.229Z,101001.41
2018-09-12T19:21:11.285Z,101000.70
2018-09-12T19:23:41.119Z,101000.20
2018-09-12T19:26:11.067Z,101001.51
2018-09-12T19:28:45.377Z,101002.94
2018-09-12T19:31:15.504Z,100992.50
2018-09-12T19:33:45.546Z,100991.75
2018-09-12T19:36:15.754Z,100987.57
2018-09-12T19:38:45.559Z,101005.05
2018-09-12T19:41:15.523Z,101011.31
2018-09-12T19:43:46.252Z,101020.33
2018-09-12T19:46:16.710Z,101022.77
2018-09-12T19:48:46.696Z,101018.59
2018-09-12T19:51:17.595Z,101014.73
2018-09-12T19:53:47.571Z,101018.37
2018-09-12T19:56:18.144Z,101019.93
2018-09-12T19:58:48.449Z,101021.44
2018-09-12T20:01:18.503Z,101010.30
2018-09-12T20:03:48.419Z,101012.42
2018-09-12T20:06:18.273Z,101014.73
2018-09-12T20:08:48.089Z,101020.30
2018-09-12T20:11:18.909Z,101016.30
2018-09-12T20:13:48.896Z,101016.67
2018-09-12T20:16:18.748Z,101015.78
2018-09-12T20:18:49.136Z,101012.52
2018-09-12T20:21:19.702Z,101033.97
2018-09-12T20:23:49.682Z,101031.62
2018-09-12T20:26:19.473Z,101024.27
2018-09-12T20:28:53.542Z,101037.80
2018-09-12T20:31:23.776Z,101029.38
2018-09-12T20:33:55.484Z,101034.50
2018-09-12T20:36:30.771Z,101032.20
2018-09-12T20:39:00.717Z,101024.84
2018-09-12T20:41:34.872Z,101022.58
2018-09-12T20:44:10.659Z,101024.91
2018-09-12T20:46:40.843Z,101024.34
2018-09-12T20:49:11.853Z,101017.76
2018-09-12T20:51:44.633Z,101015.61
2018-09-12T20:54:16.584Z,101017.27
2018-09-12T20:56:51.031Z,101013.55
2018-09-12T20:59:20.834Z,101005.35
2018-09-12T21:01:50.649Z,101026.11
2018-09-12T21:04:20.811Z,101021.59
2018-09-12T21:06:55.000Z,101015.48
2018-09-12T21:09:24.873Z,101010.64
2018-09-12T21:11:54.648Z,101012.23
2018-09-12T21:14:24.452Z,101000.42
2018-09-12T21:16:54.395Z,100999.94
2018-09-12T21:19:24.263Z,100996.41
2018-09-12T21:21:54.211Z,100986.75
2018-09-12T21:24:24.149Z,100998.19
2018-09-12T21:26:54.083Z,100992.62
2018-09-12T21:29:24.017Z,100997.16
2018-09-12T21:31:53.985Z,100996.41
2018-09-12T21:34:23.861Z,100990.77
2018-09-12T21:36:53.576Z,100993.16
2018-09-12T21:39:23.554Z,100991.00
2018-09-12T21:41:53.452Z,100989.06
2018-09-12T21:44:23.406Z,100992.45
2018-09-12T21:46:53.340Z,100988.13
2018-09-12T21:49:24.054Z,100995.12
2018-09-12T21:51:54.021Z,100993.08
2018-09-12T21:54:23.820Z,101006.92
2018-09-12T21:56:53.889Z,101011.67
2018-09-12T21:59:23.925Z,101017.39
2018-09-12T22:01:53.862Z,101013.75
2018-09-12T22:04:23.794Z,101010.41
2018-09-12T22:06:58.110Z,101007.51
2018-09-12T22:09:27.919Z,101011.12
2018-09-12T22:11:57.823Z,101020.18
2018-09-12T22:14:27.611Z,101004.17
2018-09-12T22:16:57.578Z,101001.17
2018-09-12T22:19:27.387Z,101006.97
2018-09-12T22:21:57.277Z,101012.27
2018-09-12T22:24:27.303Z,101008.72
2018-09-12T22:26:57.187Z,101019.97
2018-09-12T22:29:27.499Z,101020.11
2018-09-12T22:31:57.349Z,101017.11
2018-09-12T22:34:27.204Z,101012.58
2018-09-12T22:36:57.159Z,101001.37
2018-09-12T22:39:27.236Z,101000.33
2018-09-12T22:41:57.143Z,101009.98
2018-09-12T22:44:27.099Z,101005.64
2018-09-12T22:46:56.902Z,100998.98
2018-09-12T22:49:26.844Z,101001.26
2018-09-12T22:51:56.750Z,101002.41
2018-09-12T22:54:26.847Z,101001.70
2018-09-12T22:56:56.664Z,101003.11
2018-09-12T22:59:26.433Z,101006.94
2018-09-12T23:01:56.320Z,101001.77
2018-09-12T23:04:26.126Z,101001.70
2018-09-12T23:06:55.936Z,100994.13
2018-09-12T23:09:25.703Z,101002.85
2018-09-12T23:11:55.709Z,101004.93
2018-09-12T23:14:25.986Z,100995.72
2018-09-12T23:16:55.793Z,100993.67
2018-09-12T23:19:25.730Z,101001.06
2018-09-12T23:21:55.586Z,100998.39
2018-09-12T23:24:25.740Z,101003.73
2018-09-12T23:26:55.681Z,100998.20
2018-09-12T23:29:26.072Z,101002.42
2018-09-12T23:31:55.823Z,101000.57
2018-09-12T23:34:25.622Z,101003.05
2018-09-12T23:36:55.385Z,101001.28
2018-09-12T23:39:25.222Z,101003.76
2018-09-12T23:41:55.016Z,101003.34
2018-09-12T23:44:24.873Z,100995.22
2018-09-12T23:46:54.614Z,100995.33
2018-09-12T23:49:24.523Z,100998.73
2018-09-12T23:51:55.991Z,101002.86
2018-09-12T23:54:25.953Z,101001.30
2018-09-12T23:56:55.781Z,101006.95
2018-09-12T23:59:25.669Z,101006.32
